Time;durP1;ratioP1;P1;durP2;ratioP2;P2;SDS_P1;SDS_P2;PMS_P1;PMS_P2;Temp;Humidity;BMP_temperature;BMP_pressure;BME280_temperature;BME280_humidity;BME280_pressure;Samples;Min_cycle;Max_cycle;Signal;HPM_P1;HPM_P2
2022/11/18 00:01:12;;;;;;;;;;;;;;;-144.99;100.00;52570.38;5010428;28;19970;-74
2022/11/18 00:03:38;;;;;;;;;;;;;;;-144.99;100.00;52578.53;5019374;28;19944;-72
2022/11/18 00:06:06;;;;;;;;;;;;;;;-144.99;100.00;52600.97;5018975;28;20010;-74
2022/11/18 00:08:33;;;;;;;;;;;;;;;-144.99;100.00;52545.94;4999995;28;19926;-74
2022/11/18 00:11:04;;;;;;;;;;;;;;;-144.99;100.00;52556.13;5002186;28;20076;-75
2022/11/18 00:16:16;;;;;;;;;;;;;;;-144.99;100.00;52586.69;5032003;28;19998;-76
2022/11/18 00:18:42;;;;;;;;;;;;;;;-144.99;100.00;52578.53;5012474;28;19972;-74
2022/11/18 00:21:10;;;;;;;;;;;;;;;-144.99;100.00;52568.34;5004115;28;19997;-74
2022/11/18 00:23:37;;;;;;;;;;;;;;;-144.99;100.00;52611.16;5019812;28;19964;-77
2022/11/18 00:26:04;;;;;;;;;;;;;;;-144.99;100.00;52570.38;5025921;28;19959;-75
2022/11/18 00:28:31;;;;;;;;;;;;;;;-144.99;100.00;52586.69;5005141;28;20459;-77
2022/11/18 00:31:02;;;;;;;;;;;;;;;-144.99;100.00;52603.00;5028216;28;19974;-79
2022/11/18 00:33:31;;;;;;;;;;;;;;;-144.99;100.00;52574.47;5016051;28;20397;-82
2022/11/18 00:35:57;;;;;;;;;;;;;;;-144.99;100.00;52590.78;5023649;28;20406;-78
2022/11/18 00:38:24;;;;;;;;;;;;;;;-144.99;100.00;52582.63;5018761;28;19944;-77
2022/11/18 00:40:58;;;;;;;;;;;;;;;-144.99;100.00;52607.09;5018073;28;20396;-77
2022/11/18 00:43:23;;;;;;;;;;;;;;;-144.99;100.00;52562.25;5025202;28;19969;-78
2022/11/18 00:45:50;;;;;;;;;;;;;;;-144.99;100.00;52582.63;5020396;28;19939;-78
2022/11/18 00:48:20;;;;;;;;;;;;;;;-144.99;100.00;52566.31;5024500;28;19942;-78
2022/11/18 00:50:48;;;;;;;;;;;;;;;-144.99;100.00;52558.16;5019806;28;20042;-78
2022/11/18 00:53:15;;;;;;;;;;;;;;;-144.99;100.00;52566.31;5024343;28;20409;-78
2022/11/18 00:55:41;;;;;;;;;;;;;;;-144.99;100.00;52603.00;5018001;28;20367;-77
2022/11/18 00:58:08;;;;;;;;;;;;;;;-144.99;100.00;52558.16;5003289;28;19979;-78
2022/11/18 01:00:35;;;;;;;;;;;;;;;-144.99;100.00;52615.25;4994423;28;19967;-78
2022/11/18 01:03:02;;;;;;;;;;;;;;;-144.99;100.00;52607.09;5019025;28;19944;-78
2022/11/18 01:05:28;;;;;;;;;;;;;;;-144.99;100.00;52617.28;5013997;28;19951;-70
2022/11/18 01:07:56;;;;;;;;;;;;;;;-144.99;100.00;52582.63;5010178;28;20051;-70
2022/11/18 01:10:22;;;;;;;;;;;;;;;-144.99;100.00;52609.13;5010638;28;20178;-69
2022/11/18 01:15:39;;;;;;;;;;;;;;;-144.99;100.00;52525.56;5005707;28;19950;-69
2022/11/18 01:18:06;;;;;;;;;;;;;;;-144.99;100.00;52611.16;5012923;28;20387;-69
2022/11/18 01:20:33;;;;;;;;;;;;;;;-144.99;100.00;52578.53;5010900;28;19964;-69
2022/11/18 01:23:01;;;;;;;;;;;;;;;-144.99;100.00;52586.69;5009900;28;20029;-68
2022/11/18 01:25:27;;;;;;;;;;;;;;;-144.99;100.00;52574.47;5009556;28;19936;-69
2022/11/18 01:27:54;;;;;;;;;;;;;;;-144.99;100.00;52574.47;5003469;28;20414;-68
2022/11/18 01:30:21;;;;;;;;;;;;;;;-144.99;100.00;52566.31;5008029;28;19998;-69
2022/11/18 01:32:47;;;;;;;;;;;;;;;-144.99;100.00;52570.38;5015157;28;19986;-66
2022/11/18 01:35:14;;;;;;;;;;;;;;;-144.99;100.00;52578.53;5010054;28;20405;-67
2022/11/18 01:37:41;;;;;;;;;;;;;;;-144.99;100.00;52580.59;5010271;28;20007;-70
2022/11/18 01:40:09;;;;;;;;;;;;;;;-144.99;100.00;52566.31;5009452;28;20010;-67
2022/11/18 01:42:36;;;;;;;;;;;;;;;-144.99;100.00;52533.69;5019839;28;19958;-67
2022/11/18 01:45:08;;;;;;;;;;;;;;;-144.99;100.00;52554.09;5010204;28;19958;-68
2022/11/18 01:47:37;;;;;;;;;;;;;;;-144.99;100.00;52574.47;5019106;28;20421;-70
2022/11/18 01:50:05;;;;;;;;;;;;;;;-144.99;100.00;52586.69;5009476;28;20047;-70
2022/11/18 01:52:33;;;;;;;;;;;;;;;-144.99;100.00;52603.00;5016066;28;19994;-70
2022/11/18 01:55:03;;;;;;;;;;;;;;;-144.99;100.00;52586.69;5023804;28;20069;-68
2022/11/18 01:57:32;;;;;;;;;;;;;;;-144.99;100.00;52594.84;5013709;28;19999;-70
2022/11/18 02:00:02;;;;;;;;;;;;;;;-144.99;100.00;52568.34;5014048;28;19946;-71
2022/11/18 02:02:30;;;;;;;;;;;;;;;-144.99;100.00;52574.47;5020068;28;19960;-68
2022/11/18 02:04:57;;;;;;;;;;;;;;;-144.99;100.00;52582.63;5022201;28;19979;-70
2022/11/18 02:07:24;;;;;;;;;;;;;;;-144.99;100.00;52611.16;5013191;28;20032;-70
2022/11/18 02:09:51;;;;;;;;;;;;;;;-144.99;100.00;52598.94;5013294;28;20040;-70
2022/11/18 02:12:19;;;;;;;;;;;;;;;-144.99;100.00;52594.84;5013013;28;20048;-72
2022/11/18 02:14:47;;;;;;;;;;;;;;;-144.99;100.00;52598.94;5019132;28;20041;-72
2022/11/18 02:17:19;;;;;;;;;;;;;;;-144.99;100.00;52598.94;5008185;28;19993;-73
2022/11/18 02:20:03;;;;;;;;;;;;;;;-144.99;100.00;52598.94;5019517;28;19970;-69
2022/11/18 02:22:41;;;;;;;;;;;;;;;-144.99;100.00;52600.97;5011942;28;20058;-69
2022/11/18 02:25:15;;;;;;;;;;;;;;;-144.99;100.00;52603.00;5024012;28;19993;-69
2022/11/18 02:27:56;;;;;;;;;;;;;;;-144.99;100.00;52613.19;5017886;28;20288;-65
2022/11/18 02:30:24;;;;;;;;;;;;;;;-144.99;100.00;52541.84;4994183;28;19983;-65
2022/11/18 02:32:54;;;;;;;;;;;;;;;-144.99;100.00;52603.00;5022565;28;20424;-65
2022/11/18 02:35:26;;;;;;;;;;;;;;;-144.99;100.00;52592.81;5012980;28;20043;-66
2022/11/18 02:37:55;;;;;;;;;;;;;;;-144.99;100.00;52600.97;5012192;28;19944;-66
2022/11/18 02:40:24;;;;;;;;;;;;;;;-144.99;100.00;52594.84;5014318;28;20003;-66
2022/11/18 02:42:54;;;;;;;;;;;;;;;-144.99;100.00;52590.78;5023150;28;20045;-67
2022/11/18 02:45:22;;;;;;;;;;;;;;;-144.99;100.00;52613.19;5012816;28;20365;-65
2022/11/18 02:47:50;;;;;;;;;;;;;;;-144.99;100.00;52582.63;5016443;28;19968;-66
2022/11/18 02:50:19;;;;;;;;;;;;;;;-144.99;100.00;52590.78;5027108;28;20386;-66
2022/11/18 02:52:46;;;;;;;;;;;;;;;-144.99;100.00;52566.31;5017687;28;20315;-66
2022/11/18 02:55:14;;;;;;;;;;;;;;;-144.99;100.00;52582.63;5012849;28;20453;-65
2022/11/18 02:57:42;;;;;;;;;;;;;;;-144.99;100.00;52594.84;5016139;28;20047;-66
2022/11/18 03:00:08;;;;;;;;;;;;;;;-144.99;100.00;52598.94;5014570;28;20034;-67
2022/11/18 03:02:40;;;;;;;;;;;;;;;-144.99;100.00;52590.78;4999196;28;19963;-66
2022/11/18 03:05:12;;;;;;;;;;;;;;;-144.99;100.00;52594.84;5012251;28;20010;-65
2022/11/18 03:07:41;;;;;;;;;;;;;;;-144.99;100.00;52558.16;5014924;28;19939;-70
2022/11/18 03:10:07;;;;;;;;;;;;;;;-144.99;100.00;52615.25;5014298;28;20409;-69
2022/11/18 03:12:38;;;;;;;;;;;;;;;-144.99;100.00;52584.66;5022693;28;19983;-70
2022/11/18 03:15:11;;;;;;;;;;;;;;;-144.99;100.00;52603.00;5012078;28;20014;-69
2022/11/18 03:17:44;;;;;;;;;;;;;;;-144.99;100.00;52582.63;5010903;28;19945;-68
2022/11/18 03:20:16;;;;;;;;;;;;;;;-144.99;100.00;52586.69;5021522;28;19940;-69
2022/11/18 03:22:44;;;;;;;;;;;;;;;-144.99;100.00;52603.00;5016393;28;20492;-68
2022/11/18 03:25:14;;;;;;;;;;;;;;;-144.99;100.00;52543.91;5012103;28;19994;-69
2022/11/18 03:27:45;;;;;;;;;;;;;;;-144.99;100.00;52545.94;5014517;28;20350;-69
2022/11/18 03:30:15;;;;;;;;;;;;;;;-144.99;100.00;52598.94;5020356;28;20054;-68
2022/11/18 03:32:43;;;;;;;;;;;;;;;-144.99;100.00;52525.56;5018466;28;20448;-68
2022/11/18 03:35:13;;;;;;;;;;;;;;;-144.99;100.00;52603.00;5005491;28;20176;-72
2022/11/18 03:37:43;;;;;;;;;;;;;;;-144.99;100.00;52554.09;5011663;28;20007;-72
2022/11/18 03:40:12;;;;;;;;;;;;;;;-144.99;100.00;52529.63;5013977;28;19946;-73
2022/11/18 03:42:41;;;;;;;;;;;;;;;-144.99;100.00;52590.78;5026758;28;20055;-72
2022/11/18 03:45:12;;;;;;;;;;;;;;;-144.99;100.00;52598.94;5011761;28;20420;-73
2022/11/18 03:47:40;;;;;;;;;;;;;;;-144.99;100.00;52578.53;5024078;28;19940;-69
2022/11/18 03:50:12;;;;;;;;;;;;;;;-144.99;100.00;52603.00;5017931;28;20458;-69
2022/11/18 03:52:39;;;;;;;;;;;;;;;-144.99;100.00;52633.59;5013966;28;19947;-70
2022/11/18 03:55:11;;;;;;;;;;;;;;;-144.99;100.00;52607.09;5011470;28;20407;-70
2022/11/18 03:57:43;;;;;;;;;;;;;;;-144.99;100.00;52580.59;5024355;28;20000;-71
2022/11/18 04:00:11;;;;;;;;;;;;;;;-144.99;100.00;52619.31;5021007;28;19947;-70
2022/11/18 04:02:38;;;;;;;;;;;;;;;-144.99;100.00;52582.63;5021328;28;20089;-70
2022/11/18 04:05:05;;;;;;;;;;;;;;;-144.99;100.00;52586.69;5014591;28;20340;-71
2022/11/18 04:07:33;;;;;;;;;;;;;;;-144.99;100.00;52562.25;5011103;28;19990;-70
2022/11/18 04:10:11;;;;;;;;;;;;;;;-144.99;100.00;52586.69;5009560;28;19980;-71
2022/11/18 04:12:42;;;;;;;;;;;;;;;-144.99;100.00;52582.63;5013124;28;19940;-70
2022/11/18 04:15:09;;;;;;;;;;;;;;;-144.99;100.00;52611.16;5014288;28;20064;-70
2022/11/18 04:17:35;;;;;;;;;;;;;;;-144.99;100.00;52588.75;5010504;28;19977;-70
2022/11/18 04:20:02;;;;;;;;;;;;;;;-144.99;100.00;52586.69;5010022;28;20044;-69
2022/11/18 04:22:28;;;;;;;;;;;;;;;-144.99;100.00;52631.53;5021350;28;19982;-70
2022/11/18 04:24:55;;;;;;;;;;;;;;;-144.99;100.00;52603.00;5013101;28;19971;-70
2022/11/18 04:27:21;;;;;;;;;;;;;;;-144.99;100.00;52611.16;5012419;28;19945;-69
2022/11/18 04:29:49;;;;;;;;;;;;;;;-144.99;100.00;52556.13;5009153;28;20463;-69
2022/11/18 04:32:16;;;;;;;;;;;;;;;-144.99;100.00;52562.25;5019149;28;19962;-66
2022/11/18 04:34:42;;;;;;;;;;;;;;;-144.99;100.00;52570.38;5010125;28;20373;-67
2022/11/18 04:37:09;;;;;;;;;;;;;;;-144.99;100.00;52598.94;5013075;28;19943;-71
2022/11/18 04:39:35;;;;;;;;;;;;;;;-144.99;100.00;52623.38;5010352;28;20568;-72
2022/11/18 04:42:02;;;;;;;;;;;;;;;-144.99;100.00;52578.53;5011412;28;20059;-73
2022/11/18 04:44:29;;;;;;;;;;;;;;;-144.99;100.00;52586.69;5007973;28;20395;-72
2022/11/18 04:46:59;;;;;;;;;;;;;;;-144.99;100.00;52570.38;5021117;28;20022;-71
2022/11/18 04:49:26;;;;;;;;;;;;;;;-144.99;100.00;52594.84;5014421;28;20472;-67
2022/11/18 04:51:53;;;;;;;;;;;;;;;-144.99;100.00;52623.38;5018431;28;20322;-65
2022/11/18 04:54:20;;;;;;;;;;;;;;;-144.99;100.00;52545.94;5010163;28;20087;-69
2022/11/18 04:56:47;;;;;;;;;;;;;;;-144.99;100.00;52592.81;5009412;28;19947;-68
2022/11/18 04:59:14;;;;;;;;;;;;;;;-144.99;100.00;52617.28;5008373;28;19926;-69
2022/11/18 05:01:40;;;;;;;;;;;;;;;-144.99;100.00;52558.16;5010651;28;20235;-68
2022/11/18 05:04:12;;;;;;;;;;;;;;;-144.99;100.00;52611.16;5011045;28;19995;-69
2022/11/18 05:06:39;;;;;;;;;;;;;;;-144.99;100.00;52570.38;5009678;28;19995;-70
2022/11/18 05:09:05;;;;;;;;;;;;;;;-144.99;100.00;52541.84;5010888;28;20043;-74
2022/11/18 05:14:16;;;;;;;;;;;;;;;-144.99;100.00;52582.63;5010287;28;20423;-75
2022/11/18 05:16:43;;;;;;;;;;;;;;;-144.99;100.00;52598.94;5011029;28;20410;-74
2022/11/18 05:19:11;;;;;;;;;;;;;;;-144.99;100.00;52611.16;5010925;28;20470;-76
2022/11/18 05:21:38;;;;;;;;;;;;;;;-144.99;100.00;52582.63;5012678;28;20328;-70
2022/11/18 05:24:05;;;;;;;;;;;;;;;-144.99;100.00;52611.16;5008287;28;19991;-70
2022/11/18 05:26:31;;;;;;;;;;;;;;;-144.99;100.00;52578.53;5010225;28;19936;-72
2022/11/18 05:28:58;;;;;;;;;;;;;;;-144.99;100.00;52574.47;5009629;28;19961;-70
2022/11/18 05:31:24;;;;;;;;;;;;;;;-144.99;100.00;52576.50;5017738;28;20633;-70
2022/11/18 05:33:51;;;;;;;;;;;;;;;-144.99;100.00;52594.84;5013441;28;20401;-69
2022/11/18 05:36:20;;;;;;;;;;;;;;;-144.99;100.00;52594.84;5014199;28;19947;-70
2022/11/18 05:38:46;;;;;;;;;;;;;;;-144.99;100.00;52566.31;5016577;28;20034;-69
2022/11/18 05:43:09;;;;;;;;;;;;;;;-144.99;100.00;52590.78;5014092;28;20002;-69
2022/11/18 05:43:59;;;;;;;;;;;;;;;-144.99;100.00;52617.28;5013112;28;19955;-70
2022/11/18 05:46:26;;;;;;;;;;;;;;;-144.99;100.00;52594.84;5014064;28;19936;-64
2022/11/18 05:48:53;;;;;;;;;;;;;;;-144.99;100.00;52611.16;5010665;28;20379;-72
2022/11/18 05:51:21;;;;;;;;;;;;;;;-144.99;100.00;52590.78;5012784;28;20342;-71
2022/11/18 05:53:47;;;;;;;;;;;;;;;-144.99;100.00;52578.53;5018544;28;19942;-71
2022/11/18 05:56:18;;;;;;;;;;;;;;;-144.99;100.00;52588.75;5013449;28;20367;-70
2022/11/18 05:58:47;;;;;;;;;;;;;;;-144.99;100.00;52611.16;5019096;28;19941;-90
2022/11/18 06:01:16;;;;;;;;;;;;;;;-144.99;100.00;52580.59;5040677;28;20007;-87
2022/11/18 06:03:43;;;;;;;;;;;;;;;-144.99;100.00;52566.31;5043701;28;19955;-85
2022/11/18 06:06:10;;;;;;;;;;;;;;;-144.99;100.00;52611.16;4693007;28;10000444;-85
2022/11/18 06:08:42;;;;;;;;;;;;;;;-144.99;100.00;52598.94;5041170;28;19935;-85
2022/11/18 06:11:12;;;;;;;;;;;;;;;-144.99;100.00;52578.53;5036436;28;19973;-86
2022/11/18 06:13:42;;;;;;;;;;;;;;;-144.99;100.00;52574.47;5022499;28;19937;-86
2022/11/18 06:16:08;;;;;;;;;;;;;;;-144.99;100.00;52582.63;5028363;28;19951;-82
2022/11/18 06:18:35;;;;;;;;;;;;;;;-144.99;100.00;52594.84;5044439;28;19930;-83
2022/11/18 06:21:05;;;;;;;;;;;;;;;-144.99;100.00;52574.47;5047721;28;19972;-84
2022/11/18 06:23:34;;;;;;;;;;;;;;;-144.99;100.00;52578.53;5043517;28;19962;-84
2022/11/18 06:26:02;;;;;;;;;;;;;;;-144.99;100.00;52578.53;5041681;28;19941;-84
2022/11/18 06:28:30;;;;;;;;;;;;;;;-144.99;100.00;52586.69;5038396;28;19934;-85
2022/11/18 06:30:57;;;;;;;;;;;;;;;-144.99;100.00;52584.66;5054202;28;19944;-82
2022/11/18 06:33:24;;;;;;;;;;;;;;;-144.99;100.00;52621.34;5038241;28;19960;-84
2022/11/18 06:35:51;;;;;;;;;;;;;;;-144.99;100.00;52603.00;5038730;28;19935;-86
2022/11/18 06:38:18;;;;;;;;;;;;;;;-144.99;100.00;52598.94;5038589;28;19951;-87
2022/11/18 06:40:44;;;;;;;;;;;;;;;-144.99;100.00;52598.94;5037531;28;19952;-86
2022/11/18 06:48:38;;;;;;;;;;;;;;;-144.99;100.00;52619.31;5015977;28;19966;-84
2022/11/18 06:51:05;;;;;;;;;;;;;;;-144.99;100.00;52598.94;5048058;28;20025;-83
2022/11/18 06:53:31;;;;;;;;;;;;;;;-144.99;100.00;52598.94;5041891;28;19946;-81
2022/11/18 06:56:02;;;;;;;;;;;;;;;-144.99;100.00;52572.44;5044976;28;19939;-82
2022/11/18 06:58:30;;;;;;;;;;;;;;;-144.99;100.00;52562.25;5036513;28;19942;-81
2022/11/18 07:00:56;;;;;;;;;;;;;;;-144.99;100.00;52590.78;5023072;28;19949;-80
2022/11/18 07:03:23;;;;;;;;;;;;;;;-144.99;100.00;52635.63;5044216;28;19976;-83
2022/11/18 07:05:49;;;;;;;;;;;;;;;-144.99;100.00;52566.31;5036052;28;20336;-80
2022/11/18 07:08:16;;;;;;;;;;;;;;;-144.99;100.00;52580.59;5041890;28;19951;-81
2022/11/18 07:10:51;;;;;;;;;;;;;;;-144.99;100.00;52607.09;5037091;28;19967;-81
2022/11/18 07:13:18;;;;;;;;;;;;;;;-144.99;100.00;52580.59;5019878;28;19956;-82
2022/11/18 07:15:46;;;;;;;;;;;;;;;-144.99;100.00;52647.84;4998985;28;19993;-80
2022/11/18 07:18:12;;;;;;;;;;;;;;;-144.99;100.00;52574.47;5019261;28;19969;-79
2022/11/18 07:20:39;;;;;;;;;;;;;;;-144.99;100.00;52607.09;5017211;28;20014;-80
2022/11/18 07:23:05;;;;;;;;;;;;;;;-144.99;100.00;52574.47;5012500;28;19956;-79
2022/11/18 07:25:32;;;;;;;;;;;;;;;-144.99;100.00;52576.50;5023781;28;20457;-79
2022/11/18 07:27:58;;;;;;;;;;;;;;;-144.99;100.00;52566.31;5024735;28;20029;-79
2022/11/18 07:30:25;;;;;;;;;;;;;;;-144.99;100.00;52582.63;5025659;28;19946;-79
2022/11/18 07:32:53;;;;;;;;;;;;;;;-144.99;100.00;52619.31;5015947;28;19973;-79
2022/11/18 07:35:19;;;;;;;;;;;;;;;-144.99;100.00;52603.00;5036118;28;19940;-80
2022/11/18 07:37:46;;;;;;;;;;;;;;;-144.99;100.00;52582.63;5015931;28;20006;-79
2022/11/18 07:40:12;;;;;;;;;;;;;;;-144.99;100.00;52594.84;5015134;28;19999;-80
2022/11/18 07:42:42;;;;;;;;;;;;;;;-144.99;100.00;52570.38;5019919;28;19929;-79
2022/11/18 07:45:10;;;;;;;;;;;;;;;-144.99;100.00;52586.69;5025356;28;19963;-80
2022/11/18 07:47:36;;;;;;;;;;;;;;;-144.99;100.00;52574.47;5016638;28;20220;-79
2022/11/18 07:50:04;;;;;;;;;;;;;;;-144.99;100.00;52603.00;5015434;28;19955;-80
2022/11/18 07:52:31;;;;;;;;;;;;;;;-144.99;100.00;52582.63;4670856;28;9999947;-81
2022/11/18 07:54:58;;;;;;;;;;;;;;;-144.99;100.00;52580.59;5031443;28;19945;-80
2022/11/18 07:57:24;;;;;;;;;;;;;;;-144.99;100.00;52598.94;5014418;28;19949;-80
2022/11/18 07:59:51;;;;;;;;;;;;;;;-144.99;100.00;52558.16;5013598;28;19947;-80
2022/11/18 08:02:17;;;;;;;;;;;;;;;-144.99;100.00;52533.69;5014591;28;20017;-78
2022/11/18 08:04:44;;;;;;;;;;;;;;;-144.99;100.00;52590.78;5013206;28;20368;-79
2022/11/18 08:07:12;;;;;;;;;;;;;;;-144.99;100.00;52592.81;5038134;28;19944;-78
2022/11/18 08:09:38;;;;;;;;;;;;;;;-144.99;100.00;52619.31;5022918;28;19986;-79
2022/11/18 08:12:05;;;;;;;;;;;;;;;-144.99;100.00;52617.28;5015000;28;20056;-80
2022/11/18 08:14:32;;;;;;;;;;;;;;;-144.99;100.00;52592.81;5023661;28;20438;-79
2022/11/18 08:16:59;;;;;;;;;;;;;;;-144.99;100.00;52584.66;5012430;28;19944;-78
2022/11/18 08:19:25;;;;;;;;;;;;;;;-144.99;100.00;52598.94;5013069;28;19982;-77
2022/11/18 08:21:52;;;;;;;;;;;;;;;-144.99;100.00;52574.47;5019085;28;19951;-78
2022/11/18 08:24:22;;;;;;;;;;;;;;;-144.99;100.00;52590.78;5014056;28;20570;-78
2022/11/18 08:26:48;;;;;;;;;;;;;;;-144.99;100.00;52586.69;5011829;28;19955;-78
2022/11/18 08:29:15;;;;;;;;;;;;;;;-144.99;100.00;52558.16;5011477;28;19972;-78
2022/11/18 08:31:41;;;;;;;;;;;;;;;-144.99;100.00;52554.09;5013200;28;19960;-77
2022/11/18 08:34:08;;;;;;;;;;;;;;;-144.99;99.72;52598.94;5013331;28;20002;-77
2022/11/18 08:36:35;;;;;;;;;;;;;;;-144.99;99.64;52550.00;5020307;28;19967;-78
2022/11/18 08:39:03;;;;;;;;;;;;;;;-144.99;99.58;52594.84;5011315;28;19951;-77
2022/11/18 08:41:33;;;;;;;;;;;;;;;-144.99;99.19;52607.09;5010538;28;20370;-78
2022/11/18 08:44:00;;;;;;;;;;;;;;;-144.99;98.46;52550.00;5019496;28;20368;-77
2022/11/18 08:46:27;;;;;;;;;;;;;;;-144.99;97.99;52558.16;5015016;28;19939;-77
2022/11/18 08:48:54;;;;;;;;;;;;;;;-144.99;97.46;52615.25;5008565;28;19949;-77
2022/11/18 08:51:20;;;;;;;;;;;;;;;-144.99;96.38;52598.94;5013183;28;19964;-78
2022/11/18 08:53:47;;;;;;;;;;;;;;;-144.99;96.54;52582.63;5019254;28;19970;-77
2022/11/18 08:56:15;;;;;;;;;;;;;;;-144.99;96.58;52594.84;4998379;28;19986;-77
2022/11/18 08:58:43;;;;;;;;;;;;;;;-144.99;95.42;52605.03;5005493;28;19996;-77
2022/11/18 09:01:10;;;;;;;;;;;;;;;-144.99;94.03;52625.44;5006877;28;20024;-78
2022/11/18 09:03:37;;;;;;;;;;;;;;;-144.99;94.56;52590.78;5019671;28;19992;-77
2022/11/18 09:06:07;;;;;;;;;;;;;;;-144.99;94.53;52582.63;5016266;28;19993;-78
2022/11/18 09:08:34;;;;;;;;;;;;;;;-144.99;94.21;52668.22;5030525;28;19970;-77
2022/11/18 09:11:04;;;;;;;;;;;;;;;-144.99;92.59;52586.69;5037197;28;19950;-77
2022/11/18 09:13:31;;;;;;;;;;;;;;;-144.99;91.39;52578.53;5040446;28;19940;-77
2022/11/18 09:15:59;;;;;;;;;;;;;;;-144.99;91.42;52598.94;5026580;28;19945;-79
2022/11/18 09:18:26;;;;;;;;;;;;;;;-144.99;90.65;52603.00;5016339;28;20014;-79
2022/11/18 09:20:55;;;;;;;;;;;;;;;-144.99;90.35;52594.84;5021728;28;20205;-77
2022/11/18 09:23:22;;;;;;;;;;;;;;;-144.99;90.08;52600.97;5018624;28;20042;-79
2022/11/18 09:25:48;;;;;;;;;;;;;;;-144.99;89.35;52623.38;5035072;28;20346;-78
2022/11/18 09:28:15;;;;;;;;;;;;;;;-144.99;88.60;52570.38;5015395;28;19943;-77
2022/11/18 09:30:41;;;;;;;;;;;;;;;-144.99;87.52;52578.53;5012539;28;20202;-78
2022/11/18 09:33:09;;;;;;;;;;;;;;;-144.99;87.55;52607.09;5006645;28;19951;-79
2022/11/18 09:35:36;;;;;;;;;;;;;;;-144.99;86.38;52594.84;5025222;28;19993;-79
2022/11/18 09:38:03;;;;;;;;;;;;;;;-144.99;86.00;52560.19;5016736;28;19947;-78
2022/11/18 09:40:29;;;;;;;;;;;;;;;-144.99;87.13;52603.00;5018930;28;19967;-78
2022/11/18 09:43:03;;;;;;;;;;;;;;;-144.99;85.47;52609.13;5017439;28;19955;-79
2022/11/18 09:45:36;;;;;;;;;;;;;;;-144.99;85.03;52586.69;5025062;28;19943;-78
2022/11/18 09:48:13;;;;;;;;;;;;;;;-144.99;83.99;52582.63;5023073;28;19966;-77
2022/11/18 09:50:41;;;;;;;;;;;;;;;-144.99;85.15;52594.84;5018181;28;19949;-78
2022/11/18 09:53:14;;;;;;;;;;;;;;;-144.99;85.03;52592.81;5025330;28;19996;-79
2022/11/18 09:55:41;;;;;;;;;;;;;;;-144.99;84.82;52619.31;5035781;28;19944;-78
2022/11/18 09:58:07;;;;;;;;;;;;;;;-144.99;86.86;52603.00;5032432;28;19951;-77
2022/11/18 10:00:34;;;;;;;;;;;;;;;-144.99;85.75;52592.81;5019635;28;20254;-79
2022/11/18 10:03:03;;;;;;;;;;;;;;;-144.99;84.37;52635.63;5030381;28;20023;-77
2022/11/18 10:05:31;;;;;;;;;;;;;;;-144.99;83.56;52566.31;5023895;28;20434;-77
2022/11/18 10:08:14;;;;;;;;;;;;;;;-144.99;83.04;52582.63;5013193;28;20396;-77
2022/11/18 10:10:46;;;;;;;;;;;;;;;-144.99;81.81;52574.47;5012790;28;19955;-76
2022/11/18 10:13:18;;;;;;;;;;;;;;;-144.99;80.35;52566.31;5012673;28;20000;-76
2022/11/18 10:15:52;;;;;;;;;;;;;;;-144.99;80.70;52574.47;5026635;28;19943;-78
2022/11/18 10:18:24;;;;;;;;;;;;;;;-144.99;80.93;52574.47;5023528;28;19995;-77
2022/11/18 10:20:56;;;;;;;;;;;;;;;-144.99;78.93;52578.53;5015486;28;19962;-76
2022/11/18 10:23:28;;;;;;;;;;;;;;;-144.99;77.81;52590.78;5019191;28;19997;-76
2022/11/18 10:25:55;;;;;;;;;;;;;;;-144.99;77.06;52605.03;5026307;28;20024;-76
2022/11/18 10:28:23;;;;;;;;;;;;;;;-144.99;77.15;52562.25;5022880;28;19944;-76
2022/11/18 10:30:50;;;;;;;;;;;;;;;-144.99;78.78;52607.09;5016616;28;20014;-77
2022/11/18 10:33:25;;;;;;;;;;;;;;;-144.99;76.66;52562.25;5031810;28;20338;-76
2022/11/18 10:36:07;;;;;;;;;;;;;;;-144.99;75.45;52574.47;5017105;28;20044;-76
2022/11/18 10:38:36;;;;;;;;;;;;;;;-144.99;76.46;52582.63;5012678;28;19944;-77
2022/11/18 10:41:05;;;;;;;;;;;;;;;-144.99;74.99;52592.81;5017991;28;20044;-76
2022/11/18 10:43:46;;;;;;;;;;;;;;;-144.99;73.71;52574.47;5012715;28;20347;-76
2022/11/18 10:46:17;;;;;;;;;;;;;;;-144.99;74.78;52582.63;5018436;28;19993;-76
2022/11/18 10:48:43;;;;;;;;;;;;;;;-144.99;72.97;52574.47;5020068;28;19936;-76
2022/11/18 10:51:20;;;;;;;;;;;;;;;-144.99;73.18;52594.84;5037669;28;19966;-77
2022/11/18 10:53:48;;;;;;;;;;;;;;;-144.99;72.52;52529.63;5036364;28;19948;-77
2022/11/18 10:56:15;;;;;;;;;;;;;;;-144.99;72.51;52598.94;5018713;28;20028;-75
2022/11/18 10:58:44;;;;;;;;;;;;;;;-144.99;69.98;52596.88;5014352;28;19980;-76
2022/11/18 11:01:19;;;;;;;;;;;;;;;-144.99;70.85;52568.34;5014878;28;20055;-76
2022/11/18 11:03:56;;;;;;;;;;;;;;;-144.99;70.67;52594.84;5021144;28;19961;-76
2022/11/18 11:06:40;;;;;;;;;;;;;;;-144.99;70.23;52627.47;5017354;28;20064;-75
2022/11/18 11:09:10;;;;;;;;;;;;;;;-144.99;69.94;52598.94;5017932;28;19981;-77
2022/11/18 11:11:38;;;;;;;;;;;;;;;-144.99;70.55;52560.19;5011437;28;19960;-76
2022/11/18 11:14:07;;;;;;;;;;;;;;;-144.99;70.55;52607.09;5015432;28;20311;-76
2022/11/18 11:16:38;;;;;;;;;;;;;;;-144.99;71.77;52611.16;5007201;28;19943;-76
2022/11/18 11:19:05;;;;;;;;;;;;;;;-144.99;71.81;52592.81;5017741;28;19950;-76
2022/11/18 11:21:32;;;;;;;;;;;;;;;-144.99;72.67;52586.69;5002361;28;19993;-75
2022/11/18 11:23:58;;;;;;;;;;;;;;;-144.99;71.94;52594.84;5015907;28;19978;-75
2022/11/18 11:26:31;;;;;;;;;;;;;;;-144.99;71.28;52596.88;5017915;28;20001;-76
2022/11/18 11:29:01;;;;;;;;;;;;;;;-144.99;70.79;52607.09;5007126;28;19979;-77
2022/11/18 11:31:31;;;;;;;;;;;;;;;-144.99;69.78;52603.00;5010428;28;20008;-75
2022/11/18 11:34:01;;;;;;;;;;;;;;;-144.99;70.22;52598.94;5020222;28;19944;-75
2022/11/18 11:36:34;;;;;;;;;;;;;;;-144.99;69.65;52609.13;5010196;28;19948;-75
2022/11/18 11:39:22;;;;;;;;;;;;;;;-144.99;70.46;52596.88;5006848;28;20008;-75
2022/11/18 11:42:00;;;;;;;;;;;;;;;-144.99;68.05;52613.19;4997585;28;20316;-75
2022/11/18 11:44:34;;;;;;;;;;;;;;;-144.99;68.27;52582.63;5010530;28;19959;-76
2022/11/18 11:49:53;;;;;;;;;;;;;;;-144.99;68.05;52625.44;5011277;28;19950;-76
2022/11/18 11:52:25;;;;;;;;;;;;;;;-144.99;66.55;52596.88;5017957;28;20449;-76
2022/11/18 11:54:57;;;;;;;;;;;;;;;-144.99;66.91;52594.84;5015202;28;19944;-77
2022/11/18 11:57:33;;;;;;;;;;;;;;;-144.99;66.04;52594.84;5012407;28;19939;-76
2022/11/18 12:00:02;;;;;;;;;;;;;;;-144.99;66.52;52568.34;5021760;28;19948;-76
2022/11/18 12:02:40;;;;;;;;;;;;;;;-144.99;66.73;52615.25;5013107;28;20013;-75
2022/11/18 12:05:15;;;;;;;;;;;;;;;-144.99;65.74;52598.94;5014429;28;20009;-77
2022/11/18 12:07:45;;;;;;;;;;;;;;;-144.99;64.14;52627.47;5014747;28;20420;-76
2022/11/18 12:10:28;;;;;;;;;;;;;;;-144.99;65.71;52607.09;5010847;28;19947;-76
2022/11/18 12:13:00;;;;;;;;;;;;;;;-144.99;64.75;52603.00;5004528;28;20021;-76
2022/11/18 12:15:35;;;;;;;;;;;;;;;-144.99;65.16;52570.38;5013286;28;19946;-76
2022/11/18 12:18:05;;;;;;;;;;;;;;;-144.99;64.53;52651.94;5011429;28;20028;-75
2022/11/18 12:20:39;;;;;;;;;;;;;;;-144.99;63.70;52615.25;5030506;28;20009;-75
2022/11/18 12:23:09;;;;;;;;;;;;;;;-144.99;63.92;52619.31;5011209;28;19953;-77
2022/11/18 12:25:56;;;;;;;;;;;;;;;-144.99;63.80;52578.53;5014067;28;20702;-75
2022/11/18 12:28:25;;;;;;;;;;;;;;;-144.99;63.44;52627.47;5015037;28;19944;-75
2022/11/18 12:31:16;;;;;;;;;;;;;;;-144.99;63.53;52627.47;5009435;28;19973;-75
2022/11/18 12:33:43;;;;;;;;;;;;;;;-144.99;63.85;52635.63;5009292;28;19954;-75
2022/11/18 12:36:10;;;;;;;;;;;;;;;-144.99;62.67;52623.38;5014148;28;19949;-75
2022/11/18 12:38:37;;;;;;;;;;;;;;;-144.99;63.65;52607.09;5028866;28;19944;-75
2022/11/18 12:43:45;;;;;;;;;;;;;;;-144.99;64.21;52582.63;5013963;28;19987;-74
2022/11/18 12:44:04;;;;;;;;;;;;;;;-144.99;63.28;52574.47;5012963;28;20071;-74
2022/11/18 12:46:55;;;;;;;;;;;;;;;-144.99;63.31;52615.25;5011083;28;20334;-75